Time;durP1;ratioP1;P1;durP2;ratioP2;P2;SDS_P1;SDS_P2;PMS_P1;PMS_P2;Temp;Humidity;BMP_temperature;BMP_pressure;BME280_temperature;BME280_humidity;BME280_pressure;Samples;Min_cycle;Max_cycle;Signal;HPM_P1;HPM_P2
2022/05/05 00:02:09;;;;;;;13.35;5.28;;;;;;;10.17;77.56;101933.56;5050038;28;20144;-50
2022/05/05 00:04:37;;;;;;;10.98;5.30;;;;;;;10.15;78.61;101922.25;5048190;28;20642;-50
2022/05/05 00:07:05;;;;;;;11.70;5.35;;;;;;;10.16;78.19;101931.84;5047809;28;20056;-48
2022/05/05 00:09:34;;;;;;;13.18;5.50;;;;;;;10.19;78.17;101923.81;5050378;28;20060;-52
2022/05/05 00:14:48;;;;;;;11.30;5.60;;;;;;;10.11;80.49;101929.44;5050944;28;20106;-50
2022/05/05 00:17:17;;;;;;;12.43;5.30;;;;;;;10.12;79.43;101925.03;5050909;28;20040;-47
2022/05/05 00:19:46;;;;;;;12.50;5.30;;;;;;;10.09;78.49;101926.03;5047438;28;20075;-48
2022/05/05 00:22:14;;;;;;;13.20;5.22;;;;;;;10.13;77.47;101927.59;5049587;28;20048;-52
2022/05/05 00:24:42;;;;;;;17.48;5.60;;;;;;;10.21;76.37;101923.75;5051655;28;20037;-50
2022/05/05 00:27:10;;;;;;;16.98;5.78;;;;;;;10.21;76.19;101922.00;5051398;28;20049;-49
2022/05/05 00:29:38;;;;;;;13.23;6.47;;;;;;;10.24;75.48;101927.09;5048186;28;20052;-50
2022/05/05 00:32:07;;;;;;;12.98;5.68;;;;;;;10.27;76.49;101934.84;5048399;28;20059;-48
2022/05/05 00:34:37;;;;;;;12.55;5.93;;;;;;;10.26;77.04;101927.88;5051627;28;20500;-48
2022/05/05 00:37:05;;;;;;;12.90;5.30;;;;;;;10.24;77.33;101929.72;5051935;28;20563;-51
2022/05/05 00:39:34;;;;;;;11.05;5.53;;;;;;;10.20;77.02;101928.16;5051546;28;20134;-49
2022/05/05 00:42:02;;;;;;;12.13;6.38;;;;;;;10.24;78.23;101924.47;5045799;28;20452;-52
2022/05/05 00:44:31;;;;;;;12.23;5.80;;;;;;;10.19;79.17;101929.09;5046685;28;20086;-50
2022/05/05 00:46:59;;;;;;;10.07;5.57;;;;;;;10.21;79.33;101926.38;5051216;28;20041;-48
2022/05/05 00:49:29;;;;;;;12.73;6.07;;;;;;;10.19;80.16;101923.81;5051153;28;20052;-49
2022/05/05 00:51:59;;;;;;;12.23;5.40;;;;;;;10.16;80.05;101921.34;5045063;28;20094;-51
2022/05/05 00:54:28;;;;;;;11.55;5.55;;;;;;;10.18;80.45;101930.00;5047293;28;20045;-48
2022/05/05 00:56:56;;;;;;;12.32;5.80;;;;;;;10.17;81.14;101927.44;5049198;28;20048;-52
2022/05/05 00:59:24;;;;;;;12.88;6.00;;;;;;;10.15;81.17;101927.53;5051069;28;20085;-47
2022/05/05 01:01:53;;;;;;;16.17;6.10;;;;;;;10.10;80.47;101926.88;5051085;28;20043;-47
2022/05/05 01:04:21;;;;;;;14.73;6.32;;;;;;;10.11;81.04;101925.94;5049478;28;20099;-51
2022/05/05 01:06:51;;;;;;;12.77;6.20;;;;;;;10.17;81.40;101919.56;5045942;28;20458;-50
2022/05/05 01:09:22;;;;;;;12.02;5.70;;;;;;;10.15;81.43;101922.25;5051060;28;20044;-47
2022/05/05 01:11:50;;;;;;;12.93;5.32;;;;;;;10.08;81.40;101919.06;5050077;28;20057;-48
2022/05/05 01:14:19;;;;;;;12.25;6.40;;;;;;;10.05;81.49;101918.34;5051487;28;20510;-46
2022/05/05 01:16:47;;;;;;;11.25;6.10;;;;;;;10.11;81.78;101926.78;5052834;28;20491;-48
2022/05/05 01:19:15;;;;;;;9.27;5.00;;;;;;;10.10;80.45;101913.72;5054590;28;20049;-49
2022/05/05 01:21:52;;;;;;;12.52;6.00;;;;;;;9.97;82.17;101916.91;5054556;28;20488;-49
2022/05/05 01:28:10;;;;;;;11.25;6.10;;;;;;;10.00;82.40;101926.44;5054740;28;20053;-51
2022/05/05 01:29:58;;;;;;;11.95;6.03;;;;;;;9.84;83.36;101923.66;5050677;28;20949;-50
2022/05/05 01:32:31;;;;;;;14.77;5.78;;;;;;;9.85;83.58;101922.72;5054390;28;20098;-47
2022/05/05 01:35:00;;;;;;;12.70;6.25;;;;;;;9.82;84.31;101926.34;5054521;28;20440;-46
2022/05/05 01:37:30;;;;;;;15.77;6.70;;;;;;;9.81;84.17;101931.69;5054721;28;20041;-48
2022/05/05 01:39:59;;;;;;;11.82;6.03;;;;;;;9.75;83.92;101927.56;5054281;28;20053;-48
2022/05/05 01:42:27;;;;;;;12.45;6.40;;;;;;;9.70;84.61;101939.19;5054262;28;20053;-51
2022/05/05 01:44:55;;;;;;;14.20;6.22;;;;;;;9.67;84.56;101929.66;5050711;28;20059;-46
2022/05/05 01:47:23;;;;;;;11.90;5.55;;;;;;;9.63;84.91;101939.44;5050838;28;20091;-47
2022/05/05 01:49:52;;;;;;;16.33;6.13;;;;;;;9.61;84.68;101941.28;5054139;28;20440;-46
2022/05/05 01:52:20;;;;;;;12.05;6.13;;;;;;;9.66;85.08;101945.50;5054236;28;20041;-46
2022/05/05 01:54:50;;;;;;;16.60;6.13;;;;;;;9.58;85.80;101941.41;5054162;28;20103;-52
2022/05/05 01:57:18;;;;;;;14.32;5.75;;;;;;;9.56;85.89;101937.16;5053644;28;20048;-49
2022/05/05 01:59:46;;;;;;;15.63;7.22;;;;;;;9.48;86.02;101945.38;5050412;28;20499;-53
2022/05/05 02:02:15;;;;;;;11.68;5.80;;;;;;;9.42;86.37;101940.38;5051999;28;20059;-47
2022/05/05 02:04:43;;;;;;;12.60;6.10;;;;;;;9.43;86.61;101937.66;5053626;28;20087;-50
2022/05/05 02:07:11;;;;;;;15.65;6.97;;;;;;;9.42;85.84;101945.63;5050756;28;20124;-47
2022/05/05 02:09:39;;;;;;;12.32;5.80;;;;;;;9.38;86.76;101941.41;5049927;28;20036;-53
2022/05/05 02:12:10;;;;;;;15.23;6.68;;;;;;;9.36;86.77;101943.28;5053928;28;20052;-48
2022/05/05 02:14:39;;;;;;;12.77;6.25;;;;;;;9.35;87.27;101936.31;5052408;28;20123;-52
2022/05/05 02:17:07;;;;;;;11.43;6.72;;;;;;;9.28;86.84;101941.84;5049986;28;20067;-51
2022/05/05 02:19:35;;;;;;;10.70;6.05;;;;;;;9.25;86.85;101941.09;5052424;28;20087;-50
2022/05/05 02:22:04;;;;;;;13.10;6.57;;;;;;;9.25;87.07;101938.47;5053524;28;20391;-47
2022/05/05 02:24:32;;;;;;;12.93;6.10;;;;;;;9.19;87.00;101934.34;5051786;28;20118;-48
2022/05/05 02:27:01;;;;;;;14.25;6.05;;;;;;;9.23;86.71;101941.16;5049581;28;20057;-47
2022/05/05 02:29:30;;;;;;;13.63;6.03;;;;;;;9.18;86.38;101932.63;5051139;28;20120;-49
2022/05/05 02:31:58;;;;;;;12.73;6.20;;;;;;;9.12;86.42;101938.13;5053360;28;20057;-46
2022/05/05 02:34:29;;;;;;;13.98;6.15;;;;;;;9.09;86.20;101938.25;5050288;28;20110;-49
2022/05/05 02:39:43;;;;;;;11.77;6.35;;;;;;;8.99;86.76;101936.94;5053671;28;20048;-49
2022/05/05 02:42:11;;;;;;;12.63;5.90;;;;;;;9.01;87.19;101937.72;5053500;28;20119;-52
2022/05/05 02:44:41;;;;;;;13.65;6.00;;;;;;;8.95;88.29;101938.81;5052874;28;20044;-48
2022/05/05 02:47:09;;;;;;;14.32;6.28;;;;;;;8.93;87.90;101936.25;5052459;28;20132;-50
2022/05/05 02:49:38;;;;;;;13.23;6.15;;;;;;;8.89;88.02;101944.31;5053115;28;20072;-51
2022/05/05 02:52:07;;;;;;;14.05;6.53;;;;;;;8.90;88.41;101943.41;5052986;28;20045;-48
2022/05/05 02:54:47;;;;;;;13.07;6.88;;;;;;;8.87;88.41;101944.38;5051326;28;20437;-48
2022/05/05 02:57:16;;;;;;;13.63;6.63;;;;;;;8.77;88.74;101945.69;5049322;28;20079;-51
2022/05/05 02:59:45;;;;;;;17.48;6.38;;;;;;;8.68;88.79;101946.03;5051828;28;20049;-51
2022/05/05 03:02:14;;;;;;;13.98;6.60;;;;;;;8.64;89.02;101945.28;5052984;28;20094;-49
2022/05/05 03:04:43;;;;;;;12.30;6.50;;;;;;;8.61;89.72;101941.00;5052894;28;20455;-46
2022/05/05 03:07:11;;;;;;;15.35;6.30;;;;;;;8.56;90.09;101940.38;5052818;28;20139;-49
2022/05/05 03:09:40;;;;;;;15.85;6.88;;;;;;;8.59;89.84;101945.47;5052696;28;20049;-46
2022/05/05 03:12:10;;;;;;;16.05;6.25;;;;;;;8.61;89.15;101941.00;5052425;28;20131;-49
2022/05/05 03:14:38;;;;;;;12.15;6.57;;;;;;;8.55;90.16;101946.53;5049227;28;20052;-49
2022/05/05 03:17:08;;;;;;;14.70;6.63;;;;;;;8.46;90.56;101941.63;5050380;28;20535;-49
2022/05/05 03:19:37;;;;;;;15.82;7.28;;;;;;;8.63;89.92;101952.31;5050111;28;20106;-48
2022/05/05 03:22:05;;;;;;;15.43;7.00;;;;;;;8.50;91.15;101952.84;5047012;28;20555;-52
2022/05/05 03:24:34;;;;;;;12.68;5.95;;;;;;;8.46;91.71;101952.97;5051850;28;20045;-52
2022/05/05 03:27:04;;;;;;;13.18;6.28;;;;;;;8.47;91.68;101956.44;5052344;28;20052;-49
2022/05/05 03:29:33;;;;;;;13.73;6.40;;;;;;;8.53;91.71;101953.56;5052347;28;20103;-47
2022/05/05 03:32:01;;;;;;;15.60;6.82;;;;;;;8.50;91.81;101958.09;5052354;28;20045;-48
2022/05/05 03:34:31;;;;;;;17.05;6.57;;;;;;;8.48;92.46;101962.53;5050797;28;20059;-50
2022/05/05 03:36:59;;;;;;;13.75;7.10;;;;;;;8.41;92.69;101962.75;5050642;28;20088;-51
2022/05/05 03:39:28;;;;;;;14.48;6.50;;;;;;;8.32;93.47;101959.59;5051975;28;20045;-49
2022/05/05 03:41:56;;;;;;;15.25;6.53;;;;;;;8.41;93.13;101962.75;5052012;28;20045;-48
2022/05/05 03:44:24;;;;;;;15.40;6.07;;;;;;;8.39;93.12;101963.72;5052074;28;20057;-52
2022/05/05 03:46:53;;;;;;;13.13;6.50;;;;;;;8.35;93.38;101962.13;5052037;28;20479;-46
2022/05/05 03:49:21;;;;;;;15.57;6.60;;;;;;;8.25;95.09;101969.50;5051913;28;20055;-49
2022/05/05 03:51:51;;;;;;;13.32;6.40;;;;;;;8.31;94.65;101969.25;5051890;28;20048;-47
2022/05/05 03:54:19;;;;;;;15.82;6.43;;;;;;;8.26;95.17;101979.03;5048637;28;20049;-45
2022/05/05 03:56:47;;;;;;;14.43;6.70;;;;;;;8.22;94.41;101973.09;5049031;28;20052;-51
2022/05/05 03:59:15;;;;;;;13.57;6.30;;;;;;;8.22;94.19;101978.31;5051784;28;20144;-49
2022/05/05 04:01:44;;;;;;;13.60;6.68;;;;;;;8.07;94.76;101979.75;5051758;28;20099;-49
2022/05/05 04:04:12;;;;;;;13.43;5.78;;;;;;;8.05;93.70;101984.16;5051244;28;20403;-47
2022/05/05 04:06:40;;;;;;;15.05;6.95;;;;;;;8.07;94.01;101991.97;5051593;28;20045;-47
2022/05/05 04:09:11;;;;;;;13.70;6.45;;;;;;;8.06;95.07;101988.50;5051787;28;20033;-48
2022/05/05 04:11:39;;;;;;;13.20;6.47;;;;;;;8.07;95.24;101984.97;5050089;28;20080;-49
2022/05/05 04:14:07;;;;;;;15.18;6.10;;;;;;;8.08;95.35;101997.16;5046851;28;20124;-50
2022/05/05 04:16:36;;;;;;;11.57;5.97;;;;;;;8.04;96.36;102000.78;5049944;28;20051;-46
2022/05/05 04:19:04;;;;;;;14.05;7.38;;;;;;;8.03;98.40;101998.22;5051334;28;20041;-48
2022/05/05 04:21:33;;;;;;;17.77;7.18;;;;;;;8.13;98.62;102002.25;5051602;28;20041;-49
2022/05/05 04:24:01;;;;;;;15.55;6.65;;;;;;;8.04;99.39;102002.56;5051634;28;20081;-50
2022/05/05 04:26:31;;;;;;;14.95;6.10;;;;;;;8.02;99.06;102004.41;5051562;28;20500;-46
2022/05/05 04:28:59;;;;;;;15.77;7.32;;;;;;;8.05;98.98;102007.75;5048880;28;20041;-50
2022/05/05 04:31:29;;;;;;;12.65;6.68;;;;;;;8.01;99.84;102006.16;5047697;28;20053;-51
2022/05/05 04:33:58;;;;;;;14.35;6.38;;;;;;;8.05;99.92;102006.91;5051569;28;20091;-46
2022/05/05 04:36:26;;;;;;;17.63;6.90;;;;;;;8.07;99.81;102011.19;5051885;28;20077;-47
2022/05/05 04:38:55;;;;;;;11.98;6.43;;;;;;;8.09;100.00;102009.34;5051455;28;20048;-47
2022/05/05 04:41:23;;;;;;;15.25;6.63;;;;;;;8.12;99.57;102008.38;5048821;28;20049;-52
2022/05/05 04:43:53;;;;;;;15.70;7.15;;;;;;;8.10;98.98;102007.59;5047607;28;20053;-47
2022/05/05 04:46:21;;;;;;;14.40;6.47;;;;;;;8.08;99.76;102012.03;5051471;28;20076;-49
2022/05/05 04:48:50;;;;;;;14.48;6.50;;;;;;;8.10;99.72;102010.22;5055068;28;20033;-52
2022/05/05 04:51:18;;;;;;;14.38;6.63;;;;;;;8.08;99.54;102012.03;5051679;28;20130;-50
2022/05/05 04:53:47;;;;;;;13.68;6.07;;;;;;;8.11;100.00;102007.53;5050895;28;20507;-50
2022/05/05 04:56:15;;;;;;;16.05;6.75;;;;;;;8.10;99.98;102012.84;5054683;28;20059;-50
2022/05/05 04:58:43;;;;;;;12.52;6.78;;;;;;;8.09;99.99;102018.97;5055027;28;20080;-47
2022/05/05 05:01:13;;;;;;;15.98;6.53;;;;;;;8.20;100.00;102005.50;5055411;28;20041;-48
2022/05/05 05:03:41;;;;;;;15.98;8.02;;;;;;;8.14;100.00;102006.56;5055319;28;20049;-49
2022/05/05 05:06:10;;;;;;;16.27;7.43;;;;;;;8.20;100.00;102008.97;5055190;28;20091;-46
2022/05/05 05:08:40;;;;;;;14.93;7.00;;;;;;;8.25;100.00;102009.66;5055386;28;20125;-49
2022/05/05 05:11:08;;;;;;;13.88;7.13;;;;;;;8.31;100.00;102016.44;5055337;28;20079;-48
2022/05/05 05:13:37;;;;;;;14.27;6.57;;;;;;;8.26;100.00;102016.59;5054923;28;20065;-49
2022/05/05 05:16:06;;;;;;;14.52;7.22;;;;;;;8.32;100.00;102023.38;5053512;28;20057;-50
2022/05/05 05:18:55;;;;;;;18.27;8.00;;;;;;;8.29;100.00;102026.97;5050594;28;20088;-48
2022/05/05 05:21:24;;;;;;;16.92;7.63;;;;;;;8.35;100.00;102027.66;5054014;28;20052;-50
2022/05/05 05:23:52;;;;;;;18.25;7.30;;;;;;;8.41;100.00;102030.91;5054850;28;20079;-49
2022/05/05 05:26:21;;;;;;;16.90;7.25;;;;;;;8.38;100.00;102035.41;5055059;28;20064;-49
2022/05/05 05:28:49;;;;;;;15.95;7.40;;;;;;;8.50;100.00;102028.91;5054855;28;20049;-50
2022/05/05 05:31:17;;;;;;;13.27;7.13;;;;;;;8.58;100.00;102029.47;5051418;28;20052;-48
2022/05/05 05:33:46;;;;;;;20.88;7.38;;;;;;;8.62;100.00;102038.91;5050949;28;20080;-51
2022/05/05 05:36:15;;;;;;;16.33;7.35;;;;;;;8.63;100.00;102036.22;5054215;28;20041;-47
2022/05/05 05:38:44;;;;;;;17.95;7.65;;;;;;;8.71;100.00;102043.81;5054276;28;20048;-49
2022/05/05 05:41:12;;;;;;;14.95;7.88;;;;;;;8.70;100.00;102041.22;5052903;28;20491;-48
2022/05/05 05:43:41;;;;;;;13.90;7.03;;;;;;;8.74;100.00;102043.69;5051158;28;20048;-50
2022/05/05 05:46:09;;;;;;;14.15;7.82;;;;;;;8.79;100.00;102041.75;5052973;28;20049;-48
2022/05/05 05:48:38;;;;;;;17.83;8.35;;;;;;;8.87;100.00;102049.31;5054522;28;20384;-49
2022/05/05 05:51:06;;;;;;;15.57;8.45;;;;;;;8.90;100.00;102043.09;5054389;28;20400;-46
2022/05/05 05:53:36;;;;;;;21.30;9.90;;;;;;;8.96;100.00;102058.59;5054692;28;20426;-48
2022/05/05 05:56:04;;;;;;;18.10;8.77;;;;;;;9.03;99.69;102048.72;5054278;28;20049;-49
2022/05/05 05:58:36;;;;;;;17.65;9.00;;;;;;;9.05;99.57;102062.63;5053128;28;20048;-47
2022/05/05 06:01:06;;;;;;;20.45;8.90;;;;;;;9.07;98.70;102061.66;5050414;28;20041;-50
2022/05/05 06:06:20;;;;;;;19.40;8.43;;;;;;;9.20;97.66;102061.16;5054139;28;20484;-47
2022/05/05 06:08:50;;;;;;;19.45;9.38;;;;;;;9.25;96.26;102065.31;5054075;28;20053;-49
2022/05/05 06:11:21;;;;;;;22.02;9.88;;;;;;;9.35;95.92;102067.56;5053698;28;20086;-48
2022/05/05 06:13:49;;;;;;;20.48;9.70;;;;;;;9.39;95.42;102066.53;5054004;28;20055;-50
2022/05/05 06:16:18;;;;;;;17.00;9.50;;;;;;;9.49;95.77;102067.88;5053689;28;20132;-50
2022/05/05 06:18:46;;;;;;;18.50;9.80;;;;;;;9.63;95.15;102076.03;5054083;28;20049;-47
2022/05/05 06:21:14;;;;;;;20.77;9.43;;;;;;;9.77;94.90;102077.22;5053505;28;20044;-48
2022/05/05 06:23:42;;;;;;;20.92;10.57;;;;;;;9.90;93.73;102070.53;5053748;28;20045;-49
2022/05/05 06:26:12;;;;;;;21.35;10.07;;;;;;;10.02;91.08;102068.28;5053736;28;20053;-48
2022/05/05 06:28:40;;;;;;;19.50;10.07;;;;;;;10.19;89.96;102080.72;5053553;28;20053;-50
2022/05/05 06:31:08;;;;;;;18.65;10.15;;;;;;;10.23;89.14;102077.03;5053933;28;20044;-48
2022/05/05 06:33:36;;;;;;;22.45;9.82;;;;;;;10.31;88.01;102080.19;5053445;28;20472;-47
2022/05/05 06:36:05;;;;;;;23.67;10.85;;;;;;;10.42;88.38;102079.72;5048965;28;20136;-50
2022/05/05 06:38:33;;;;;;;22.10;9.90;;;;;;;10.58;86.91;102079.88;5049944;28;20500;-49
2022/05/05 06:41:02;;;;;;;15.98;9.73;;;;;;;10.69;86.17;102087.28;5052700;28;20041;-50
2022/05/05 06:43:31;;;;;;;18.75;10.38;;;;;;;10.79;86.10;102085.94;5053250;28;20049;-51
2022/05/05 06:46:00;;;;;;;19.95;9.65;;;;;;;10.95;85.90;102081.66;5053670;28;20568;-52
2022/05/05 06:48:28;;;;;;;19.45;10.07;;;;;;;11.13;84.62;102084.34;5053106;28;20041;-48
2022/05/05 06:50:56;;;;;;;19.67;9.80;;;;;;;11.27;83.67;102087.16;5052822;28;20562;-48
2022/05/05 06:53:25;;;;;;;20.73;9.52;;;;;;;11.48;82.85;102087.06;5053097;28;20080;-48
2022/05/05 06:55:56;;;;;;;21.15;9.52;;;;;;;11.56;79.96;102089.31;5052943;28;20041;-51
2022/05/05 06:58:24;;;;;;;17.42;10.13;;;;;;;11.74;81.81;102088.41;5052966;28;20123;-49
2022/05/05 07:03:40;;;;;;;19.60;9.38;;;;;;;12.13;79.78;102083.81;5053106;28;20045;-52
2022/05/05 07:06:09;;;;;;;19.08;8.98;;;;;;;12.30;77.80;102094.34;5051834;28;20358;-52
2022/05/05 07:11:24;;;;;;;20.63;9.27;;;;;;;12.67;74.95;102094.16;5051062;28;20128;-51
2022/05/05 07:13:52;;;;;;;17.75;8.80;;;;;;;12.85;73.70;102100.22;5052335;28;20045;-49
2022/05/05 07:16:22;;;;;;;18.25;8.75;;;;;;;13.08;71.78;102106.88;5052469;28;20053;-50
2022/05/05 07:18:50;;;;;;;16.15;8.55;;;;;;;13.30;70.29;102105.69;5052540;28;20111;-49
2022/05/05 07:21:20;;;;;;;15.93;8.27;;;;;;;13.53;69.05;102112.31;5052276;28;20049;-52
2022/05/05 07:23:48;;;;;;;18.67;9.07;;;;;;;13.69;69.46;102105.19;5052641;28;20132;-53
2022/05/05 07:26:16;;;;;;;24.15;9.55;;;;;;;13.82;68.85;102109.78;5052041;28;20124;-51
2022/05/05 07:28:44;;;;;;;15.95;9.43;;;;;;;14.00;68.46;102108.69;5052441;28;20063;-53
2022/05/05 07:31:13;;;;;;;18.38;9.25;;;;;;;14.24;68.52;102108.16;5051031;28;20049;-50
2022/05/05 07:33:43;;;;;;;21.55;10.43;;;;;;;14.40;66.86;102105.44;5048688;28;20103;-50
2022/05/05 07:36:11;;;;;;;18.30;9.90;;;;;;;14.57;66.72;102111.47;5050902;28;20072;-52
2022/05/05 07:38:39;;;;;;;24.65;10.57;;;;;;;14.76;64.23;102113.84;5052360;28;20056;-53
2022/05/05 07:41:08;;;;;;;19.98;9.55;;;;;;;15.02;62.10;102117.50;5052038;28;20046;-49
2022/05/05 07:43:36;;;;;;;17.08;8.93;;;;;;;15.15;62.44;102112.28;5048354;28;20083;-51
2022/05/05 07:46:04;;;;;;;18.52;9.75;;;;;;;15.33;61.32;102115.53;5049026;28;20051;-53
2022/05/05 07:48:33;;;;;;;19.75;8.85;;;;;;;15.56;59.50;102114.00;5050202;28;20045;-51
2022/05/05 07:51:02;;;;;;;17.70;8.88;;;;;;;15.77;59.67;102114.38;5045926;28;20487;-52
2022/05/05 07:53:31;;;;;;;17.55;9.13;;;;;;;16.08;57.85;102114.13;5050047;28;20464;-52
2022/05/05 07:55:59;;;;;;;16.77;8.73;;;;;;;16.35;57.25;102106.91;5052061;28;20037;-48
2022/05/05 07:58:27;;;;;;;18.35;8.88;;;;;;;16.55;54.58;102118.78;5051549;28;20456;-47
2022/05/05 08:00:55;;;;;;;19.38;9.13;;;;;;;16.72;52.52;102125.56;5049486;28;20049;-49
2022/05/05 08:03:24;;;;;;;19.45;10.65;;;;;;;16.97;51.65;102121.16;5048127;28;20052;-49
2022/05/05 08:05:52;;;;;;;21.63;10.30;;;;;;;17.15;52.12;102116.34;5050789;28;20475;-52
2022/05/05 08:08:22;;;;;;;17.98;9.38;;;;;;;17.20;51.46;102114.19;5048254;28;20151;-48
2022/05/05 08:10:53;;;;;;;15.43;8.38;;;;;;;17.52;51.01;102113.63;5048487;28;20049;-47
2022/05/05 08:13:21;;;;;;;17.23;8.65;;;;;;;17.88;49.33;102122.44;5051639;28;20055;-49
2022/05/05 08:15:50;;;;;;;19.08;8.98;;;;;;;18.11;50.60;102122.53;5048587;28;20518;-48
2022/05/05 08:18:18;;;;;;;18.63;10.70;;;;;;;18.24;49.85;102125.06;5047994;28;20120;-49
2022/05/05 08:20:46;;;;;;;21.10;9.95;;;;;;;18.40;50.95;102122.06;5049592;28;20472;-46
2022/05/05 08:23:14;;;;;;;17.02;9.40;;;;;;;18.52;50.06;102125.59;5047307;28;20136;-53
2022/05/05 08:28:30;;;;;;;19.05;10.15;;;;;;;18.73;49.93;102129.22;5051480;28;20441;-52
2022/05/05 08:30:58;;;;;;;17.80;9.52;;;;;;;19.05;48.78;102123.13;5050691;28;20073;-46
2022/05/05 08:33:28;;;;;;;18.70;9.00;;;;;;;18.98;48.20;102127.28;5050768;28;20045;-52
2022/05/05 08:35:56;;;;;;;19.10;9.32;;;;;;;18.92;48.10;102130.44;5049885;28;20052;-51
2022/05/05 08:38:25;;;;;;;16.88;9.80;;;;;;;18.89;48.23;102133.34;5048013;28;20055;-49
2022/05/05 08:40:55;;;;;;;21.25;10.05;;;;;;;18.77;47.23;102139.63;5049807;28;20504;-49
2022/05/05 08:43:23;;;;;;;16.90;9.45;;;;;;;18.85;47.75;102134.53;5051055;28;20228;-48
2022/05/05 08:46:13;;;;;;;21.52;10.00;;;;;;;19.19;47.40;102140.66;5051137;28;20037;-49
2022/05/05 08:48:44;;;;;;;16.33;9.60;;;;;;;19.35;46.71;102142.94;5051232;28;20127;-50
2022/05/05 08:51:18;;;;;;;18.08;10.85;;;;;;;19.28;46.15;102144.41;5050977;28;20066;-49
2022/05/05 08:53:53;;;;;;;20.73;11.48;;;;;;;19.58;45.63;102143.69;5051191;28;20606;-52
2022/05/05 08:56:23;;;;;;;20.05;11.32;;;;;;;19.70;45.08;102144.50;5050898;28;20037;-53
2022/05/05 08:58:51;;;;;;;20.50;11.80;;;;;;;19.80;45.22;102144.59;5049774;28;20400;-49
2022/05/05 09:01:19;;;;;;;19.15;10.95;;;;;;;19.87;45.75;102151.13;5047485;28;20052;-51
2022/05/05 09:03:48;;;;;;;22.05;12.63;;;;;;;19.76;44.13;102157.31;5050054;28;20136;-52
2022/05/05 09:06:16;;;;;;;20.45;11.57;;;;;;;20.02;45.00;102148.97;5046546;28;20052;-51
2022/05/05 09:08:46;;;;;;;24.88;11.35;;;;;;;20.37;44.32;102150.44;5047385;28;20084;-52
2022/05/05 09:11:20;;;;;;;19.23;11.57;;;;;;;20.72;45.10;102151.03;5049353;28;20055;-50
2022/05/05 09:13:49;;;;;;;19.65;11.38;;;;;;;20.83;43.27;102158.94;5050654;28;20045;-52
2022/05/05 09:16:26;;;;;;;18.85;11.40;;;;;;;20.69;42.60;102149.47;5051353;28;20408;-48
2022/05/05 09:18:54;;;;;;;20.63;11.73;;;;;;;20.77;43.49;102151.47;5051381;28;20115;-52
2022/05/05 09:21:34;;;;;;;21.95;10.73;;;;;;;20.60;43.63;102158.25;5046359;28;20071;-51
2022/05/05 09:26:56;;;;;;;19.42;10.85;;;;;;;20.62;43.94;102155.50;5050797;28;20048;-49
2022/05/05 09:29:25;;;;;;;19.20;11.15;;;;;;;20.48;43.70;102159.34;5047801;28;20061;-50
2022/05/05 09:31:54;;;;;;;20.77;10.90;;;;;;;20.51;43.40;102148.41;5047560;28;20132;-47
2022/05/05 09:34:22;;;;;;;17.73;11.40;;;;;;;20.54;44.11;102159.66;5051311;28;20068;-46
2022/05/05 09:36:50;;;;;;;17.38;10.90;;;;;;;20.71;43.51;102154.69;5054147;28;20091;-48
2022/05/05 09:39:18;;;;;;;18.25;10.48;;;;;;;20.77;44.15;102156.84;5054538;28;20650;-51
2022/05/05 09:41:49;;;;;;;18.25;11.18;;;;;;;20.62;44.12;102161.66;5054180;28;20064;-53
2022/05/05 09:44:21;;;;;;;20.48;9.80;;;;;;;21.00;43.57;102160.13;5053908;28;20052;-52
2022/05/05 09:46:51;;;;;;;20.17;10.60;;;;;;;21.10;42.91;102166.38;5053699;28;20049;-48
2022/05/05 09:49:20;;;;;;;18.65;10.32;;;;;;;20.88;43.12;102156.72;5054002;28;20136;-50
2022/05/05 09:57:39;;;;;;;20.33;10.38;;;;;;;20.97;43.18;102159.56;5054252;28;20045;-47
2022/05/05 09:57:43;;;;;;;20.45;10.68;;;;;;;21.27;41.45;102164.00;5054438;28;20041;-49
2022/05/05 10:00:25;;;;;;;19.27;11.18;;;;;;;21.35;41.28;102164.16;5054010;28;20057;-49
2022/05/05 10:05:46;;;;;;;17.80;10.52;;;;;;;21.42;41.79;102165.28;5051472;28;20103;-50
2022/05/05 10:08:16;;;;;;;19.75;11.55;;;;;;;21.33;41.34;102157.25;5054274;28;20435;-52
2022/05/05 10:10:45;;;;;;;28.50;12.27;;;;;;;21.62;42.22;102165.31;5054267;28;20411;-51
2022/05/05 10:13:14;;;;;;;17.92;11.13;;;;;;;21.76;41.00;102164.91;5053646;28;20048;-49
2022/05/05 10:15:42;;;;;;;16.70;10.13;;;;;;;21.61;41.64;102166.31;5049687;28;20710;-51
2022/05/05 10:18:27;;;;;;;16.88;10.75;;;;;;;21.99;42.05;102167.28;5051838;28;20068;-48
2022/05/05 10:20:58;;;;;;;18.67;10.52;;;;;;;22.02;41.14;102164.31;5054200;28;20068;-52
2022/05/05 10:23:38;;;;;;;18.83;9.77;;;;;;;22.12;42.34;102165.13;5053529;28;20106;-51
2022/05/05 10:26:08;;;;;;;19.13;11.57;;;;;;;22.28;39.50;102163.69;5053774;28;20037;-50
2022/05/05 10:28:47;;;;;;;18.60;10.90;;;;;;;21.88;40.95;102168.28;5052606;28;20144;-52
2022/05/05 10:31:43;;;;;;;20.38;11.80;;;;;;;21.49;41.01;102168.25;5053574;28;20053;-50
2022/05/05 10:34:19;;;;;;;17.85;10.85;;;;;;;21.56;41.29;102179.28;5053128;28;20049;-48
2022/05/05 10:37:02;;;;;;;19.13;11.60;;;;;;;21.76;41.06;102167.56;5053690;28;20053;-52
2022/05/05 10:40:01;;;;;;;;;;;;;;;22.06;41.44;102157.66;5053476;28;20440;-48
2022/05/05 10:42:39;;;;;;;17.50;10.27;;;;;;;22.35;41.53;102155.94;5026826;28;19948;-51
2022/05/05 10:45:15;;;;;;;19.40;10.77;;;;;;;22.59;40.07;102164.31;5047032;28;20061;-53
2022/05/05 10:48:38;;;;;;;18.77;10.43;;;;;;;22.56;39.43;102159.22;5053065;28;20384;-50
2022/05/05 10:51:10;;;;;;;18.30;10.93;;;;;;;22.58;39.70;102165.31;5051175;28;20404;-53
2022/05/05 10:53:40;;;;;;;;;;;;;;;22.57;39.06;102160.09;5050189;28;20049;-51
2022/05/05 10:56:28;;;;;;;16.52;10.23;;;;;;;22.76;39.72;102160.00;5051361;28;19968;-51
2022/05/05 10:59:02;;;;;;;16.33;10.30;;;;;;;22.64;39.49;102160.34;5049377;28;20526;-52
2022/05/05 11:01:33;;;;;;;19.52;11.75;;;;;;;22.14;40.67;102169.50;5049733;28;20420;-52
2022/05/05 11:04:25;;;;;;;17.77;11.18;;;;;;;22.17;41.64;102172.75;5052706;28;20049;-52
2022/05/05 11:07:36;;;;;;;21.42;11.07;;;;;;;22.79;41.20;102172.25;5051275;28;20063;-52
2022/05/05 11:10:45;;;;;;;18.55;10.88;;;;;;;23.33;38.63;102174.22;5052432;28;20052;-50
2022/05/05 11:13:35;;;;;;;19.95;11.25;;;;;;;23.35;37.74;102173.09;5052347;28;20063;-52
2022/05/05 11:22:15;;;;;;;17.00;10.50;;;;;;;23.37;38.11;102168.41;5052290;28;20496;-53
2022/05/05 11:24:46;;;;;;;17.80;10.27;;;;;;;23.44;37.11;102172.16;5052504;28;20053;-53
2022/05/05 11:27:17;;;;;;;18.65;10.40;;;;;;;23.75;37.20;102171.78;5052373;28;20049;-51
2022/05/05 11:29:50;;;;;;;18.65;10.85;;;;;;;23.69;37.17;102177.75;5048317;28;20053;-52
2022/05/05 11:32:19;;;;;;;17.17;9.60;;;;;;;23.70;37.21;102174.09;5048015;28;20381;-51
2022/05/05 11:34:48;;;;;;;17.20;9.50;;;;;;;23.49;36.23;102168.19;5051187;28;20400;-52
2022/05/05 11:37:17;;;;;;;19.17;8.80;;;;;;;23.98;37.06;102173.16;5046981;28;20047;-52
2022/05/05 11:39:48;;;;;;;15.30;9.63;;;;;;;24.27;34.94;102175.56;5049608;28;20055;-53
2022/05/05 11:42:19;;;;;;;15.48;8.88;;;;;;;23.96;35.72;102165.25;5052157;28;20049;-52
2022/05/05 11:44:48;;;;;;;16.10;10.43;;;;;;;23.51;36.48;102172.41;5052296;28;20534;-49
2022/05/05 11:47:18;;;;;;;13.02;8.60;;;;;;;24.22;35.82;102172.50;5048364;28;20049;-52
2022/05/05 11:49:48;;;;;;;15.40;9.65;;;;;;;24.30;34.97;102177.91;5048819;28;20055;-51
2022/05/05 11:52:16;;;;;;;14.27;8.73;;;;;;;24.34;35.21;102164.97;5051878;28;20041;-51
2022/05/05 11:54:48;;;;;;;19.92;10.00;;;;;;;24.48;34.82;102161.72;5052154;28;20075;-50
2022/05/05 11:57:34;;;;;;;18.25;9.93;;;;;;;24.33;34.66;102166.84;5051370;28;20116;-50
2022/05/05 12:02:48;;;;;;;14.40;9.63;;;;;;;24.74;34.94;102159.00;5049709;28;20045;-48
2022/05/05 12:05:18;;;;;;;14.75;9.80;;;;;;;24.73;34.72;102159.16;5051588;28;20071;-50
2022/05/05 12:07:47;;;;;;;13.57;8.07;;;;;;;24.99;32.76;102153.69;5051572;28;20056;-53
2022/05/05 12:10:17;;;;;;;15.15;8.63;;;;;;;24.90;33.02;102158.22;5051301;28;20071;-52
2022/05/05 12:12:48;;;;;;;12.82;8.82;;;;;;;24.99;34.14;102153.69;5051589;28;20051;-54